Verona, California
Current Conditions -  °F | °C
As of 4:53 AM on Thursday 23 Oct 2014 (Local Time) from KSMF Reporting Station
Broken Clouds Broken Clouds  
Wind Chill: 60°   Ceiling: 20000
Heat Index: 60°   Visibility: 10mi
Dew Point: 54°   Wind: 6mph
Humidity: 80%   Direction: 140°SE
Pressure: 30"   Gusts: NA
Location:  38.8689°N, 121.569°W
Report Text: KSMF 231153Z 14005KT 10SM BKN200 16/12 A3000 RMK AO2 SLP157 T01560122 10183 20156 56003
Loading
Personal Weather Stations






























Interactive Weather Map
Tropical Storm Tracking
New forecast layout! Learn more

10-Day Weather Forecast

Advertisements
Track Severe Weather on mobile